createdAt,value
2019-03-20T00:04:01.315Z,55.11
2019-03-20T00:09:11.569Z,57.30
2019-03-20T00:14:21.190Z,61.89
2019-03-20T00:19:28.475Z,54.11
2019-03-20T00:24:34.715Z,54.38
2019-03-20T00:29:43.224Z,52.13
2019-03-20T00:35:00.822Z,59.71
2019-03-20T00:40:05.156Z,59.89
2019-03-20T00:45:14.099Z,58.22
2019-03-20T00:50:24.731Z,59.11
2019-03-20T00:55:32.781Z,59.33
2019-03-20T01:00:43.191Z,63.44
2019-03-20T01:05:51.146Z,57.33
2019-03-20T01:10:58.090Z,55.22
2019-03-20T01:16:02.426Z,61.00
2019-03-20T01:21:12.743Z,56.67
2019-03-20T01:26:22.402Z,55.33
2019-03-20T01:31:26.941Z,51.00
2019-03-20T01:36:31.567Z,56.00
2019-03-20T01:41:39.584Z,50.78
2019-03-20T01:46:48.327Z,52.00
2019-03-20T01:51:58.523Z,60.00
2019-03-20T01:57:07.196Z,52.62
2019-03-20T02:02:12.587Z,50.00
2019-03-20T02:07:19.591Z,52.56
2019-03-20T02:12:27.487Z,50.00
2019-03-20T02:17:33.900Z,51.37
2019-03-20T02:22:41.099Z,50.88
2019-03-20T02:27:46.175Z,51.00
2019-03-20T02:32:50.518Z,50.00
2019-03-20T02:37:54.899Z,50.50
2019-03-20T02:43:01.867Z,54.13
2019-03-20T02:48:09.595Z,57.33
2019-03-20T02:53:18.354Z,59.38
2019-03-20T02:58:22.787Z,55.50
2019-03-20T03:03:33.256Z,56.78
2019-03-20T03:08:41.117Z,53.22
2019-03-20T03:13:45.471Z,51.00
2019-03-20T03:18:55.045Z,50.00
2019-03-20T03:24:04.560Z,47.75
2019-03-20T03:29:10.736Z,47.00
2019-03-20T03:34:17.056Z,44.25
2019-03-20T03:39:26.371Z,46.67
2019-03-20T03:44:33.313Z,45.67
2019-03-20T03:49:38.416Z,47.14
2019-03-20T03:54:43.570Z,51.75
2019-03-20T03:59:52.298Z,47.00
2019-03-20T04:04:56.649Z,46.00
2019-03-20T04:10:07.524Z,42.00
2019-03-20T04:15:18.613Z,43.00
2019-03-20T04:20:24.759Z,44.00
2019-03-20T04:25:31.864Z,43.00
2019-03-20T04:30:38.987Z,41.88
2019-03-20T04:35:43.335Z,43.33
2019-03-20T04:40:53.339Z,42.91
2019-03-20T04:46:00.859Z,43.75
2019-03-20T04:51:05.903Z,43.71
2019-03-20T04:56:15.147Z,43.67
2019-03-20T05:01:21.321Z,44.13
2019-03-20T05:06:29.595Z,46.22
2019-03-20T05:11:36.567Z,44.38
2019-03-20T05:16:45.285Z,46.22
2019-03-20T05:21:54.041Z,49.25
2019-03-20T05:27:00.231Z,50.00
2019-03-20T05:32:07.654Z,52.43
2019-03-20T05:37:17.989Z,49.11
2019-03-20T05:42:25.208Z,52.13
2019-03-20T05:47:35.415Z,49.00
2019-03-20T05:52:47.134Z,46.80
2019-03-20T05:57:58.144Z,48.38
2019-03-20T06:03:07.055Z,51.20
2019-03-20T06:08:14.143Z,51.00
2019-03-20T06:13:22.984Z,48.87
2019-03-20T06:18:33.618Z,50.69
2019-03-20T06:23:43.188Z,50.33
2019-03-20T06:28:52.262Z,47.89
2019-03-20T06:33:58.148Z,45.00
2019-03-20T06:39:07.291Z,47.62
2019-03-20T06:44:15.779Z,42.00
2019-03-20T06:49:22.259Z,43.44
2019-03-20T06:54:29.120Z,44.50
2019-03-20T06:59:39.779Z,47.00
2019-03-20T07:04:56.108Z,49.00
2019-03-20T07:10:13.458Z,47.50
2019-03-20T07:15:21.921Z,49.25
2019-03-20T07:20:29.371Z,49.89
2019-03-20T07:25:37.762Z,46.00
2019-03-20T07:30:41.551Z,52.25
2019-03-20T07:35:45.223Z,51.00
2019-03-20T07:40:49.098Z,58.20
2019-03-20T07:45:58.479Z,53.00
2019-03-20T07:51:05.546Z,63.56
2019-03-20T07:56:10.568Z,56.00
2019-03-20T08:01:14.659Z,59.20
2019-03-20T08:06:18.342Z,55.60
2019-03-20T08:11:24.480Z,59.00
2019-03-20T08:16:28.978Z,49.00
2019-03-20T08:21:34.996Z,51.50
2019-03-20T08:26:38.894Z,56.25
2019-03-20T08:31:44.023Z,51.75
2019-03-20T08:36:49.206Z,48.50
2019-03-20T08:41:55.176Z,44.50
2019-03-20T08:47:01.666Z,48.13
2019-03-20T08:52:09.899Z,46.00
2019-03-20T08:57:16.427Z,43.38
2019-03-20T09:02:23.746Z,40.88
2019-03-20T09:07:27.812Z,38.75
2019-03-20T09:12:32.530Z,42.00
2019-03-20T09:17:36.455Z,30.00
2019-03-20T09:22:43.074Z,28.62
2019-03-20T09:27:49.737Z,37.00
2019-03-20T09:32:56.154Z,28.00
2019-03-20T09:37:59.903Z,31.25
2019-03-20T09:43:08.258Z,29.37
2019-03-20T09:48:13.631Z,29.00
2019-03-20T09:53:18.711Z,27.00
2019-03-20T09:58:21.854Z,30.33
2019-03-20T10:03:25.622Z,23.00
2019-03-20T10:08:31.400Z,23.00
2019-03-20T10:13:36.278Z,17.00
2019-03-20T10:18:40.410Z,19.00
2019-03-20T10:23:43.607Z,33.00
2019-03-20T10:28:46.770Z,18.00
2019-03-20T10:33:53.243Z,25.00
2019-03-20T10:39:06.358Z,27.13
2019-03-20T10:44:05.615Z,27.00
2019-03-20T10:49:10.634Z,24.29
2019-03-20T10:54:18.108Z,32.25
2019-03-20T10:59:23.726Z,17.71
2019-03-20T11:04:28.200Z,24.50
2019-03-20T11:09:35.007Z,24.14
2019-03-20T11:14:40.810Z,18.29
2019-03-20T11:19:45.782Z,20.29
2019-03-20T11:24:52.486Z,19.25
2019-03-20T11:29:57.454Z,19.71
2019-03-20T11:35:04.350Z,20.75
2019-03-20T11:40:19.711Z,17.71
2019-03-20T11:45:26.895Z,19.14
2019-03-20T11:50:36.160Z,17.00
2019-03-20T11:55:39.110Z,17.33
2019-03-20T12:00:42.039Z,20.33
2019-03-20T12:05:46.726Z,14.50
2019-03-20T12:10:52.573Z,35.33
2019-03-20T12:15:57.102Z,41.00
2019-03-20T12:21:04.625Z,29.25
2019-03-20T12:26:12.519Z,32.00
2019-03-20T12:31:18.944Z,33.63
2019-03-20T12:36:26.668Z,28.14
2019-03-20T12:41:29.678Z,35.25
2019-03-20T12:46:41.476Z,31.75
2019-03-20T12:51:45.002Z,32.57
2019-03-20T12:56:48.492Z,36.67
2019-03-20T13:01:54.895Z,33.00
2019-03-20T13:07:02.027Z,29.75
2019-03-20T13:12:06.523Z,31.50
2019-03-20T13:17:10.454Z,27.00
2019-03-20T13:22:14.986Z,27.25
2019-03-20T13:27:18.478Z,27.67
2019-03-20T13:32:22.228Z,23.67
2019-03-20T13:37:27.754Z,17.57
2019-03-20T13:42:31.460Z,29.00
2019-03-20T13:47:39.554Z,30.75
2019-03-20T13:52:43.893Z,25.25
2019-03-20T13:57:47.604Z,22.00
2019-03-20T14:02:54.950Z,23.00
2019-03-20T14:08:02.934Z,20.00
2019-03-20T14:13:09.043Z,19.62
2019-03-20T14:18:16.930Z,23.70
2019-03-20T14:23:20.330Z,17.00
2019-03-20T14:28:26.462Z,23.75
2019-03-20T14:33:34.178Z,20.37
2019-03-20T14:38:38.498Z,25.25
2019-03-20T14:43:45.964Z,24.50
2019-03-20T14:48:49.754Z,21.00
2019-03-20T14:53:57.907Z,23.38
2019-03-20T14:59:03.448Z,23.86
2019-03-20T15:04:10.743Z,27.43
2019-03-20T15:09:14.840Z,29.80
2019-03-20T15:14:47.362Z,30.00
2019-03-20T15:20:04.775Z,28.28
2019-03-20T15:25:13.441Z,29.50
2019-03-20T15:30:22.662Z,21.50
2019-03-20T15:35:27.293Z,27.00
2019-03-20T15:40:40.950Z,31.76
2019-03-20T15:45:51.888Z,24.00
2019-03-20T15:51:01.244Z,24.00
2019-03-20T15:56:11.214Z,23.00
2019-03-20T16:01:22.496Z,21.17
2019-03-20T16:06:27.647Z,20.00
2019-03-20T16:11:41.423Z,19.69
2019-03-20T16:16:51.115Z,33.75
2019-03-20T16:22:06.479Z,20.45
2019-03-20T16:27:12.160Z,21.12
2019-03-20T16:32:41.518Z,23.63
2019-03-20T16:37:46.565Z,40.57
2019-03-20T16:42:55.556Z,23.30
2019-03-20T16:48:05.465Z,26.17
2019-03-20T16:53:13.491Z,35.00
2019-03-20T16:58:27.761Z,42.85
2019-03-20T17:03:32.038Z,26.00
2019-03-20T17:08:35.170Z,27.75
2019-03-20T17:13:38.614Z,25.00
2019-03-20T17:19:08.139Z,29.50
2019-03-20T17:24:18.128Z,30.31
2019-03-20T17:29:21.081Z,23.00
2019-03-20T17:34:25.478Z,42.60
2019-03-20T17:39:44.514Z,43.00
2019-03-20T17:44:52.452Z,43.20
2019-03-20T17:49:55.522Z,57.00
2019-03-20T17:55:06.349Z,46.43
2019-03-20T18:00:13.245Z,39.43
2019-03-20T18:05:25.114Z,41.55
2019-03-20T18:10:28.346Z,41.00
2019-03-20T18:15:37.295Z,44.18
2019-03-20T18:20:44.695Z,45.00
2019-03-20T18:32:22.430Z,44.05
2019-03-20T18:45:52.321Z,47.00
2019-03-20T18:50:56.614Z,54.00
2019-03-20T18:56:15.486Z,48.27
2019-03-20T19:01:27.848Z,50.65
2019-03-20T19:06:35.411Z,51.00
2019-03-20T19:11:47.147Z,51.00
2019-03-20T19:16:54.340Z,51.20
2019-03-20T19:22:07.080Z,53.76
2019-03-20T19:27:20.053Z,54.13
2019-03-20T19:32:30.042Z,54.00
2019-03-20T19:37:48.709Z,58.41
2019-03-20T19:42:58.699Z,52.08
2019-03-20T19:48:07.116Z,50.75
2019-03-20T19:53:13.568Z,47.50
2019-03-20T19:58:20.358Z,59.00
2019-03-20T20:08:28.551Z,50.83
2019-03-20T20:13:33.531Z,44.00
2019-03-20T20:18:41.394Z,50.12
2019-03-20T20:23:50.471Z,51.22
2019-03-20T20:28:59.551Z,48.25
2019-03-20T20:34:04.540Z,47.00
2019-03-20T20:39:09.082Z,46.75
2019-03-20T20:44:16.327Z,47.88
2019-03-20T20:49:19.537Z,47.50
2019-03-20T21:03:16.085Z,49.15
2019-03-20T21:08:20.379Z,50.67
2019-03-20T21:13:30.430Z,49.91
2019-03-20T21:18:47.306Z,48.38
2019-03-20T21:24:12.594Z,48.00
2019-03-20T21:29:33.504Z,45.63
2019-03-20T21:34:51.427Z,50.00
2019-03-20T21:39:55.837Z,45.00
2019-03-20T21:45:18.510Z,52.50
2019-03-20T21:50:43.311Z,47.62
2019-03-20T21:56:08.139Z,48.00
2019-03-20T22:01:18.111Z,47.38
2019-03-20T22:06:33.350Z,48.75
2019-03-20T22:11:38.958Z,48.00
2019-03-20T22:17:05.124Z,45.75
2019-03-20T22:22:30.536Z,42.13
2019-03-20T22:27:42.394Z,47.25
2019-03-20T22:33:07.424Z,48.25
2019-03-20T22:38:17.234Z,48.25
2019-03-20T22:43:30.332Z,49.40
2019-03-20T22:48:52.146Z,52.00
2019-03-20T22:54:05.701Z,51.09
2019-03-20T22:59:14.370Z,51.44
2019-03-20T23:04:24.441Z,51.78
2019-03-20T23:09:28.776Z,46.33
2019-03-20T23:14:38.296Z,51.33
2019-03-20T23:19:48.698Z,49.22
2019-03-20T23:24:53.156Z,51.00
2019-03-20T23:30:05.103Z,49.56
2019-03-20T23:35:09.063Z,50.00
2019-03-20T23:40:17.759Z,49.25
2019-03-20T23:45:24.958Z,51.50
2019-03-20T23:50:33.389Z,52.44
2019-03-20T23:55:38.386Z,53.67
